createdAt,value
2023-04-26T00:03:01.452Z,45.90
2023-04-26T00:13:08.124Z,45.84
2023-04-26T00:23:14.472Z,45.88
2023-04-26T00:33:21.450Z,45.80
2023-04-26T00:43:28.391Z,45.75
2023-04-26T00:53:35.640Z,45.75
2023-04-26T01:03:43.057Z,45.68
2023-04-26T01:13:50.957Z,45.70
2023-04-26T01:23:57.584Z,45.67
2023-04-26T01:34:04.888Z,45.65
2023-04-26T01:44:12.553Z,45.68
2023-04-26T01:54:19.829Z,45.62
2023-04-26T02:04:27.178Z,45.62
2023-04-26T02:14:33.992Z,45.62
2023-04-26T02:24:41.342Z,45.57
2023-04-26T02:34:48.102Z,45.54
2023-04-26T02:44:54.797Z,45.53
2023-04-26T02:55:02.435Z,45.49
2023-04-26T03:05:10.069Z,45.46
2023-04-26T03:15:17.125Z,45.45
2023-04-26T03:25:24.489Z,45.42
2023-04-26T03:35:31.578Z,45.42
2023-04-26T03:45:38.707Z,45.42
2023-04-26T03:55:46.068Z,45.30
2023-04-26T04:05:53.355Z,45.32
2023-04-26T04:16:00.296Z,45.33
2023-04-26T04:26:07.808Z,45.27
2023-04-26T04:36:14.835Z,45.23
2023-04-26T04:46:21.885Z,45.19
2023-04-26T04:56:28.633Z,45.23
2023-04-26T05:06:35.920Z,45.34
2023-04-26T05:16:42.805Z,45.56
2023-04-26T05:26:49.699Z,45.84
2023-04-26T05:36:56.701Z,45.34
2023-04-26T05:47:04.021Z,45.29
2023-04-26T05:57:12.005Z,45.28
2023-04-26T06:07:19.795Z,45.36
2023-04-26T06:17:26.664Z,45.22
2023-04-26T06:27:33.219Z,44.43
2023-04-26T06:37:39.752Z,44.52
2023-04-26T06:47:46.716Z,44.46
2023-04-26T06:57:53.685Z,44.24
2023-04-26T07:08:00.874Z,46.33
2023-04-26T07:18:07.615Z,47.23
2023-04-26T07:28:14.954Z,46.74
2023-04-26T07:38:22.197Z,46.66
2023-04-26T07:48:29.740Z,46.50
2023-04-26T07:58:37.029Z,46.52
2023-04-26T08:08:44.644Z,46.38
2023-04-26T08:18:52.257Z,46.06
2023-04-26T08:28:58.950Z,45.80
2023-04-26T08:39:06.191Z,45.42
2023-04-26T08:49:13.045Z,45.37
2023-04-26T08:59:19.172Z,45.63
2023-04-26T09:09:27.937Z,44.12
2023-04-26T09:19:36.385Z,45.13
2023-04-26T09:29:43.268Z,44.80
2023-04-26T09:39:50.538Z,44.48
2023-04-26T09:49:57.437Z,44.19
2023-04-26T10:00:04.521Z,43.29
2023-04-26T10:10:11.415Z,43.46
2023-04-26T10:20:18.783Z,42.26
2023-04-26T10:30:25.886Z,43.33
2023-04-26T10:40:33.123Z,43.90
2023-04-26T10:50:39.691Z,44.24
2023-04-26T11:00:47.326Z,43.47
2023-04-26T11:10:55.188Z,44.08
2023-04-26T11:21:01.957Z,44.20
2023-04-26T11:31:08.879Z,44.26
2023-04-26T11:41:16.187Z,43.42
2023-04-26T11:51:23.009Z,43.21
2023-04-26T12:01:30.078Z,44.12
2023-04-26T12:11:36.856Z,44.66
2023-04-26T12:21:44.073Z,45.20
2023-04-26T12:31:50.901Z,45.61
2023-04-26T12:41:58.522Z,45.87
2023-04-26T12:52:05.929Z,46.15
2023-04-26T13:02:13.101Z,45.14
2023-04-26T13:12:20.237Z,45.59
2023-04-26T13:22:27.292Z,45.96
2023-04-26T13:32:34.766Z,46.09
2023-04-26T13:42:41.706Z,46.10
2023-04-26T13:52:48.374Z,46.16
2023-04-26T14:02:55.933Z,46.21
2023-04-26T14:13:03.558Z,46.31
2023-04-26T14:23:10.406Z,46.37
2023-04-26T14:33:17.752Z,46.41
2023-04-26T14:43:24.858Z,46.41
2023-04-26T14:53:32.196Z,46.40
2023-04-26T15:03:40.218Z,46.40
2023-04-26T15:13:47.006Z,45.08
2023-04-26T15:23:53.967Z,45.44
2023-04-26T15:34:00.783Z,45.53
2023-04-26T15:44:08.061Z,45.56
2023-04-26T15:54:15.208Z,45.56
2023-04-26T16:04:22.184Z,45.53
2023-04-26T16:14:29.254Z,45.51
2023-04-26T16:24:36.393Z,45.48
2023-04-26T16:34:43.265Z,45.48
2023-04-26T16:44:50.041Z,45.50
2023-04-26T16:54:56.142Z,45.48
2023-04-26T17:05:03.811Z,45.44
2023-04-26T17:15:11.155Z,45.39
2023-04-26T17:25:18.555Z,45.38
2023-04-26T17:35:25.760Z,45.33
2023-04-26T17:45:33.560Z,45.27
2023-04-26T17:55:40.381Z,45.27
2023-04-26T18:05:47.586Z,45.74
2023-04-26T18:15:54.899Z,46.19
2023-04-26T18:26:01.595Z,46.15
2023-04-26T18:36:08.936Z,46.26
2023-04-26T18:46:15.983Z,46.46
2023-04-26T18:56:22.798Z,46.50
2023-04-26T19:06:30.243Z,46.51
2023-04-26T19:16:36.861Z,46.50
2023-04-26T19:26:43.707Z,46.48
2023-04-26T19:36:50.927Z,46.47
2023-04-26T19:46:58.166Z,46.50
2023-04-26T19:57:05.484Z,46.48
2023-04-26T20:07:11.820Z,46.40
2023-04-26T20:17:19.317Z,46.31
2023-04-26T20:27:27.251Z,46.29
2023-04-26T20:37:33.655Z,46.25
2023-04-26T20:47:40.430Z,46.26
2023-04-26T20:57:47.343Z,46.25
2023-04-26T21:07:54.445Z,46.22
2023-04-26T21:18:01.537Z,46.04
2023-04-26T21:28:09.269Z,46.07
2023-04-26T21:38:16.335Z,46.03
2023-04-26T21:48:23.314Z,46.03
2023-04-26T21:58:29.625Z,46.00
2023-04-26T22:08:36.720Z,45.96
2023-04-26T22:18:44.081Z,45.78
2023-04-26T22:28:50.878Z,45.75
2023-04-26T22:38:57.555Z,45.76
2023-04-26T22:49:04.892Z,45.73
2023-04-26T22:59:11.836Z,45.75
2023-04-26T23:09:19.825Z,45.68
2023-04-26T23:19:27.409Z,45.65
2023-04-26T23:29:34.126Z,45.63
2023-04-26T23:39:41.571Z,45.57
2023-04-26T23:49:48.849Z,45.61
2023-04-26T23:59:56.313Z,45.66
